Wetterdaten: Woche 06.08.12 - 12.08.12 (KW32)
Datum Zeit Temperatur Luftfeuchte Luftdruck Niederschlag Windrichtung Sonnenschein Solar Wind
06.08.2012 00:00 18,1 C 87 % 1008,3 hPa 0,6 l/m W-NW 0,00 h 0 W/m 19,7 km/h (3 Bft)
06.08.2012 01:00 17,4 C 92 % 1009,4 hPa 0,2 l/m W-NW 0,00 h 0 W/m 17,3 km/h (3 Bft)
06.08.2012 02:00 17,1 C 90 % 1009,4 hPa 0,2 l/m W-SW 0,00 h 0 W/m 11,1 km/h (2 Bft)
06.08.2012 03:00 16,8 C 92 % 1009,7 hPa 0,0 l/m S-SW 0,00 h 0 W/m 9,1 km/h (2 Bft)
06.08.2012 04:00 16,5 C 95 % 1010,1 hPa 0,0 l/m SW 0,00 h 0 W/m 15,2 km/h (3 Bft)
06.08.2012 05:00 16,2 C 92 % 1010,1 hPa 0,0 l/m SW 0,00 h 0 W/m 7,5 km/h (2 Bft)
06.08.2012 06:00 16,5 C 88 % 1010,4 hPa 0,0 l/m W-SW 0,00 h 11 W/m 13,6 km/h (3 Bft)
06.08.2012 07:00 16,8 C 88 % 1010,5 hPa 0,0 l/m SW 0,00 h 53 W/m 8,3 km/h (2 Bft)
06.08.2012 08:00 17,5 C 86 % 1011,0 hPa 0,0 l/m W-SW 0,08 h 102 W/m 12,6 km/h (3 Bft)
06.08.2012 09:00 17,5 C 85 % 1011,4 hPa 0,0 l/m W-SW 0,00 h 73 W/m 10,9 km/h (2 Bft)
06.08.2012 10:00 17,8 C 84 % 1011,8 hPa 0,0 l/m W-SW 0,00 h 117 W/m 9,9 km/h (2 Bft)
06.08.2012 11:00 18,7 C 81 % 1012,2 hPa 0,0 l/m W 0,00 h 239 W/m 10,9 km/h (2 Bft)
06.08.2012 12:00 19,4 C 78 % 1012,0 hPa 0,0 l/m W 0,17 h 303 W/m 11,4 km/h (2 Bft)
06.08.2012 13:00 19,6 C 74 % 1011,9 hPa 0,0 l/m W-NW 0,17 h 270 W/m 11,8 km/h (2 Bft)
06.08.2012 14:00 18,5 C 81 % 1012,1 hPa 1,8 l/m W 0,00 h 57 W/m 5,6 km/h (1 Bft)
06.08.2012 15:00 16,7 C 95 % 1013,0 hPa 5,6 l/m W 0,00 h 62 W/m 9,3 km/h (2 Bft)
06.08.2012 16:00 16,6 C 97 % 1013,2 hPa 1,0 l/m SW 0,00 h 105 W/m 12,2 km/h (2 Bft)
06.08.2012 17:00 15,1 C 95 % 1014,2 hPa 1,2 l/m N-NW 0,00 h 41 W/m 9,7 km/h (2 Bft)
06.08.2012 18:00 14,8 C 96 % 1015,1 hPa 2,0 l/m N-NW 0,00 h 14 W/m 4,9 km/h (1 Bft)
06.08.2012 19:00 14,7 C 97 % 1016,0 hPa 1,4 l/m SW 0,00 h 18 W/m 7,4 km/h (2 Bft)
06.08.2012 20:00 14,2 C 97 % 1016,5 hPa 0,0 l/m W-SW 0,33 h 26 W/m 17,0 km/h (3 Bft)
06.08.2012 21:00 13,0 C 97 % 1017,6 hPa 0,0 l/m SW 0,00 h 0 W/m 13,7 km/h (3 Bft)
06.08.2012 22:00 12,4 C 97 % 1018,3 hPa 0,0 l/m SW 0,00 h 0 W/m 10,9 km/h (2 Bft)
06.08.2012 23:00 11,9 C 97 % 1018,9 hPa 0,0 l/m SW 0,00 h 0 W/m 5,5 km/h (1 Bft)
07.08.2012 00:00 11,4 C 98 % 1019,3 hPa 0,0 l/m SW 0,00 h 0 W/m 5,1 km/h (1 Bft)
07.08.2012 01:00 11,2 C 98 % 1019,6 hPa 0,0 l/m SW 0,00 h 0 W/m 3,6 km/h (1 Bft)
07.08.2012 02:00 11,2 C 98 % 1019,8 hPa 0,2 l/m SW 0,00 h 0 W/m 3,1 km/h (1 Bft)
07.08.2012 03:00 11,1 C 98 % 1019,8 hPa 0,0 l/m SW 0,00 h 0 W/m 7,8 km/h (2 Bft)
07.08.2012 04:00 11,7 C 98 % 1019,9 hPa 0,0 l/m SW 0,00 h 0 W/m 13,7 km/h (3 Bft)
07.08.2012 05:00 11,7 C 97 % 1020,2 hPa 0,0 l/m W-SW 0,00 h 0 W/m 8,6 km/h (2 Bft)
07.08.2012 06:00 11,7 C 98 % 1020,4 hPa 0,0 l/m SW 0,00 h 17 W/m 8,0 km/h (2 Bft)
07.08.2012 07:00 12,8 C 97 % 1020,9 hPa 0,0 l/m SW 0,00 h 43 W/m 13,6 km/h (3 Bft)
07.08.2012 08:00 13,6 C 97 % 1021,2 hPa 0,0 l/m SW 0,75 h 275 W/m 14,2 km/h (3 Bft)
07.08.2012 09:00 15,8 C 92 % 1021,4 hPa 0,0 l/m SW 1,00 h 501 W/m 15,4 km/h (3 Bft)
07.08.2012 10:00 17,2 C 82 % 1021,6 hPa 0,0 l/m W-SW 0,83 h 571 W/m 18,0 km/h (3 Bft)
07.08.2012 11:00 17,9 C 77 % 1021,6 hPa 0,2 l/m W 0,25 h 396 W/m 14,1 km/h (3 Bft)
07.08.2012 12:00 18,9 C 72 % 1021,6 hPa 0,0 l/m W 0,75 h 769 W/m 17,6 km/h (3 Bft)
07.08.2012 13:00 20,0 C 64 % 1021,3 hPa 0,0 l/m SW 0,50 h 555 W/m 21,6 km/h (4 Bft)
07.08.2012 14:00 19,1 C 67 % 1021,3 hPa 0,0 l/m NW 0,42 h 504 W/m 14,0 km/h (3 Bft)
07.08.2012 15:00 20,5 C 61 % 1021,2 hPa 0,0 l/m W 0,67 h 661 W/m 19,3 km/h (3 Bft)
07.08.2012 16:00 21,5 C 55 % 1021,1 hPa 0,0 l/m W-NW 1,00 h 681 W/m 16,4 km/h (3 Bft)
07.08.2012 17:00 21,3 C 55 % 1020,8 hPa 0,0 l/m W 0,58 h 361 W/m 14,0 km/h (3 Bft)
07.08.2012 18:00 21,1 C 53 % 1020,7 hPa 0,0 l/m W-NW 0,67 h 286 W/m 12,1 km/h (2 Bft)
07.08.2012 19:00 20,1 C 58 % 1020,8 hPa 0,0 l/m W-NW 0,50 h 117 W/m 8,2 km/h (2 Bft)
07.08.2012 20:00 18,1 C 66 % 1021,3 hPa 0,0 l/m N-NW 0,08 h 16 W/m 5,6 km/h (1 Bft)
07.08.2012 21:00 15,5 C 78 % 1021,9 hPa 0,0 l/m N 0,00 h 0 W/m 2,0 km/h (1 Bft)
07.08.2012 22:00 13,7 C 86 % 1022,4 hPa 0,0 l/m N 0,00 h 0 W/m 0,4 km/h (0 Bft)
07.08.2012 23:00 13,0 C 89 % 1022,6 hPa 0,0 l/m N 0,00 h 0 W/m 0,3 km/h (0 Bft)
08.08.2012 00:00 13,8 C 88 % 1022,5 hPa 0,0 l/m N 0,00 h 0 W/m 0,8 km/h (0 Bft)
08.08.2012 01:00 14,2 C 84 % 1022,1 hPa 0,0 l/m N-NW 0,00 h 0 W/m 1,3 km/h (1 Bft)
08.08.2012 02:00 13,6 C 86 % 1022,0 hPa 0,0 l/m N 0,00 h 0 W/m 0,1 km/h (0 Bft)
08.08.2012 03:00 13,3 C 88 % 1022,1 hPa 0,0 l/m N 0,00 h 0 W/m 0,1 km/h (0 Bft)
08.08.2012 04:00 13,3 C 86 % 1022,0 hPa 0,0 l/m N-NW 0,00 h 0 W/m 2,4 km/h (1 Bft)
08.08.2012 05:00 12,3 C 89 % 1022,1 hPa 0,0 l/m N-NW 0,00 h 0 W/m 4,1 km/h (1 Bft)
08.08.2012 06:00 12,1 C 91 % 1022,4 hPa 0,0 l/m N-NW 0,00 h 13 W/m 2,9 km/h (1 Bft)
08.08.2012 07:00 13,1 C 89 % 1022,5 hPa 0,0 l/m N 0,42 h 116 W/m 0,7 km/h (0 Bft)
08.08.2012 08:00 15,7 C 77 % 1022,6 hPa 0,0 l/m N-NW 0,92 h 304 W/m 4,4 km/h (1 Bft)
08.08.2012 09:00 17,0 C 71 % 1022,6 hPa 0,0 l/m N 1,00 h 460 W/m 7,1 km/h (2 Bft)
08.08.2012 10:00 18,7 C 62 % 1022,5 hPa 0,0 l/m O 1,00 h 620 W/m 7,3 km/h (2 Bft)
08.08.2012 11:00 19,7 C 59 % 1022,2 hPa 0,0 l/m O-NO 1,00 h 761 W/m 7,5 km/h (2 Bft)
08.08.2012 12:00 20,7 C 57 % 1021,8 hPa 0,0 l/m N 0,92 h 829 W/m 8,3 km/h (2 Bft)
08.08.2012 13:00 21,3 C 55 % 1021,5 hPa 0,0 l/m N 0,75 h 805 W/m 8,8 km/h (2 Bft)
08.08.2012 14:00 21,8 C 53 % 1021,2 hPa 0,0 l/m NO 0,75 h 727 W/m 10,1 km/h (2 Bft)
08.08.2012 15:00 22,1 C 52 % 1020,9 hPa 0,0 l/m N-NO 0,33 h 387 W/m 9,7 km/h (2 Bft)
08.08.2012 16:00 22,3 C 52 % 1020,5 hPa 0,0 l/m N-NO 0,58 h 525 W/m 9,0 km/h (2 Bft)
08.08.2012 17:00 22,7 C 51 % 1020,4 hPa 0,0 l/m N-NO 0,75 h 434 W/m 9,5 km/h (2 Bft)
08.08.2012 18:00 22,0 C 54 % 1020,3 hPa 0,0 l/m N-NO 0,67 h 241 W/m 10,5 km/h (2 Bft)
08.08.2012 19:00 21,3 C 56 % 1020,5 hPa 0,0 l/m N-NO 0,75 h 138 W/m 10,2 km/h (2 Bft)
08.08.2012 20:00 19,1 C 65 % 1020,8 hPa 0,0 l/m NO 0,08 h 15 W/m 4,9 km/h (1 Bft)
08.08.2012 21:00 16,5 C 78 % 1021,1 hPa 0,0 l/m N 0,00 h 0 W/m 1,5 km/h (1 Bft)
08.08.2012 22:00 15,2 C 82 % 1021,3 hPa 0,0 l/m N 0,00 h 0 W/m 1,2 km/h (1 Bft)
08.08.2012 23:00 14,4 C 84 % 1021,3 hPa 0,0 l/m NO 0,00 h 0 W/m 2,9 km/h (1 Bft)
09.08.2012 00:00 14,0 C 84 % 1021,5 hPa 0,0 l/m NO 0,00 h 0 W/m 1,9 km/h (1 Bft)
09.08.2012 01:00 13,4 C 85 % 1021,7 hPa 0,0 l/m N-NO 0,00 h 0 W/m 2,5 km/h (1 Bft)
09.08.2012 02:00 12,9 C 87 % 1021,7 hPa 0,0 l/m N-NO 0,00 h 0 W/m 2,7 km/h (1 Bft)
09.08.2012 03:00 12,8 C 87 % 1021,6 hPa 0,0 l/m N 0,00 h 0 W/m 3,1 km/h (1 Bft)
09.08.2012 04:00 12,4 C 88 % 1021,5 hPa 0,0 l/m N 0,00 h 0 W/m 2,7 km/h (1 Bft)
09.08.2012 05:00 11,8 C 90 % 1021,4 hPa 0,0 l/m N 0,00 h 0 W/m 3,2 km/h (1 Bft)
09.08.2012 06:00 11,7 C 91 % 1021,5 hPa 0,0 l/m N 0,08 h 16 W/m 2,8 km/h (1 Bft)
09.08.2012 07:00 13,0 C 87 % 1021,6 hPa 0,0 l/m N-NO 0,17 h 109 W/m 2,7 km/h (1 Bft)
09.08.2012 08:00 15,5 C 79 % 1021,6 hPa 0,0 l/m N-NO 0,92 h 250 W/m 4,1 km/h (1 Bft)
09.08.2012 09:00 17,9 C 73 % 1021,6 hPa 0,0 l/m O-NO 0,83 h 386 W/m 6,0 km/h (2 Bft)
09.08.2012 10:00 19,8 C 64 % 1021,8 hPa 0,0 l/m O-SO 0,92 h 503 W/m 10,6 km/h (2 Bft)
09.08.2012 11:00 21,2 C 61 % 1021,8 hPa 0,0 l/m O 1,00 h 663 W/m 10,5 km/h (2 Bft)
09.08.2012 12:00 21,8 C 56 % 1021,5 hPa 0,0 l/m NO 0,92 h 690 W/m 10,3 km/h (2 Bft)
09.08.2012 13:00 22,3 C 56 % 1021,3 hPa 0,0 l/m N-NO 0,92 h 711 W/m 7,8 km/h (2 Bft)
09.08.2012 14:00 23,6 C 50 % 1021,1 hPa 0,0 l/m O-SO 0,83 h 649 W/m 8,1 km/h (2 Bft)
09.08.2012 15:00 23,9 C 49 % 1020,7 hPa 0,0 l/m O 0,42 h 498 W/m 9,4 km/h (2 Bft)
09.08.2012 16:00 23,7 C 49 % 1020,5 hPa 0,0 l/m N-NW 0,67 h 536 W/m 7,1 km/h (2 Bft)
09.08.2012 17:00 24,4 C 46 % 1020,3 hPa 0,0 l/m N-NO 0,92 h 520 W/m 8,8 km/h (2 Bft)
09.08.2012 18:00 23,5 C 50 % 1020,0 hPa 0,0 l/m N-NO 0,25 h 166 W/m 9,2 km/h (2 Bft)
09.08.2012 19:00 22,4 C 53 % 1020,2 hPa 0,0 l/m N-NO 0,17 h 81 W/m 9,3 km/h (2 Bft)
09.08.2012 20:00 20,3 C 64 % 1020,4 hPa 0,0 l/m N-NO 0,00 h 13 W/m 3,1 km/h (1 Bft)
09.08.2012 21:00 18,7 C 73 % 1020,8 hPa 0,0 l/m N-NO 0,00 h 0 W/m 2,5 km/h (1 Bft)
09.08.2012 22:00 18,6 C 72 % 1021,1 hPa 0,0 l/m N-NO 0,00 h 0 W/m 3,5 km/h (1 Bft)
09.08.2012 23:00 18,0 C 75 % 1021,1 hPa 0,0 l/m N 0,00 h 0 W/m 2,7 km/h (1 Bft)
10.08.2012 00:00 17,2 C 78 % 1021,1 hPa 0,0 l/m N 0,00 h 0 W/m 2,0 km/h (1 Bft)
10.08.2012 01:00 16,3 C 79 % 1020,9 hPa 0,0 l/m N-NO 0,00 h 0 W/m 4,5 km/h (1 Bft)
10.08.2012 02:00 15,8 C 80 % 1020,8 hPa 0,0 l/m N-NO 0,00 h 0 W/m 6,1 km/h (2 Bft)
10.08.2012 03:00 15,4 C 81 % 1020,7 hPa 0,0 l/m N 0,00 h 0 W/m 4,7 km/h (1 Bft)
10.08.2012 04:00 15,0 C 82 % 1020,4 hPa 0,0 l/m N 0,00 h 0 W/m 4,4 km/h (1 Bft)
10.08.2012 05:00 14,8 C 84 % 1020,3 hPa 0,0 l/m N 0,00 h 0 W/m 2,1 km/h (1 Bft)
10.08.2012 06:00 14,2 C 86 % 1020,4 hPa 0,0 l/m N 0,00 h 13 W/m 3,5 km/h (1 Bft)
10.08.2012 07:00 14,8 C 85 % 1020,6 hPa 0,0 l/m N 0,00 h 40 W/m 4,3 km/h (1 Bft)
10.08.2012 08:00 15,6 C 83 % 1020,7 hPa 0,0 l/m N 0,00 h 84 W/m 3,6 km/h (1 Bft)
10.08.2012 09:00 17,7 C 75 % 1020,7 hPa 0,0 l/m N-NO 0,75 h 406 W/m 4,0 km/h (1 Bft)
10.08.2012 10:00 20,0 C 68 % 1020,5 hPa 0,0 l/m O-SO 1,00 h 584 W/m 8,0 km/h (2 Bft)
10.08.2012 11:00 21,0 C 63 % 1020,2 hPa 0,0 l/m N 0,58 h 492 W/m 8,8 km/h (2 Bft)
10.08.2012 12:00 22,3 C 55 % 1019,8 hPa 0,0 l/m N 0,83 h 751 W/m 9,0 km/h (2 Bft)
10.08.2012 13:00 22,9 C 52 % 1019,4 hPa 0,0 l/m N-NO 0,67 h 658 W/m 8,4 km/h (2 Bft)
10.08.2012 14:00 23,4 C 50 % 1019,3 hPa 0,0 l/m N 0,50 h 503 W/m 12,3 km/h (3 Bft)
10.08.2012 15:00 23,6 C 50 % 1019,3 hPa 0,0 l/m N-NO 0,75 h 692 W/m 13,7 km/h (3 Bft)
10.08.2012 16:00 23,8 C 48 % 1018,9 hPa 0,0 l/m NO 0,83 h 563 W/m 13,7 km/h (3 Bft)
10.08.2012 17:00 23,8 C 48 % 1018,7 hPa 0,0 l/m N-NO 0,92 h 493 W/m 14,6 km/h (3 Bft)
10.08.2012 18:00 23,2 C 49 % 1018,5 hPa 0,0 l/m N 1,00 h 315 W/m 12,4 km/h (3 Bft)
10.08.2012 19:00 21,9 C 53 % 1018,5 hPa 0,0 l/m NO 0,17 h 66 W/m 9,5 km/h (2 Bft)
10.08.2012 20:00 19,9 C 58 % 1018,9 hPa 0,0 l/m N-NO 0,08 h 15 W/m 7,4 km/h (2 Bft)
10.08.2012 21:00 17,9 C 66 % 1019,5 hPa 0,0 l/m N-NO 0,00 h 0 W/m 6,0 km/h (2 Bft)
10.08.2012 22:00 16,6 C 72 % 1019,7 hPa 0,0 l/m N 0,00 h 0 W/m 3,3 km/h (1 Bft)
10.08.2012 23:00 15,4 C 78 % 1019,5 hPa 0,0 l/m N 0,00 h 0 W/m 3,1 km/h (1 Bft)
11.08.2012 00:00 15,1 C 78 % 1019,4 hPa 0,0 l/m N-NW 0,00 h 0 W/m 7,9 km/h (2 Bft)
11.08.2012 01:00 14,2 C 81 % 1019,4 hPa 0,0 l/m N-NW 0,00 h 0 W/m 5,1 km/h (1 Bft)
11.08.2012 02:00 13,7 C 82 % 1019,3 hPa 0,0 l/m N-NW 0,00 h 0 W/m 3,9 km/h (1 Bft)
11.08.2012 03:00 13,2 C 82 % 1019,3 hPa 0,0 l/m N-NW 0,00 h 0 W/m 4,4 km/h (1 Bft)
11.08.2012 04:00 12,8 C 83 % 1019,0 hPa 0,0 l/m N-NW 0,00 h 0 W/m 5,6 km/h (1 Bft)
11.08.2012 05:00 12,0 C 86 % 1018,8 hPa 0,0 l/m N-NW 0,00 h 0 W/m 4,4 km/h (1 Bft)
11.08.2012 06:00 11,7 C 87 % 1018,7 hPa 0,0 l/m N-NW 0,00 h 15 W/m 5,2 km/h (1 Bft)
11.08.2012 07:00 12,3 C 86 % 1019,0 hPa 0,0 l/m N-NO 0,00 h 66 W/m 6,1 km/h (2 Bft)
11.08.2012 08:00 13,5 C 81 % 1019,3 hPa 0,0 l/m O-NO 0,00 h 120 W/m 11,6 km/h (2 Bft)
11.08.2012 09:00 15,2 C 75 % 1019,2 hPa 0,0 l/m O-NO 0,67 h 366 W/m 14,5 km/h (3 Bft)
11.08.2012 10:00 17,3 C 67 % 1019,1 hPa 0,0 l/m O-NO 1,00 h 577 W/m 17,7 km/h (3 Bft)
11.08.2012 11:00 18,6 C 62 % 1018,9 hPa 0,0 l/m O-NO 1,00 h 707 W/m 17,3 km/h (3 Bft)
11.08.2012 12:00 20,1 C 58 % 1018,4 hPa 0,0 l/m O-SO 1,00 h 794 W/m 16,8 km/h (3 Bft)
11.08.2012 13:00 21,2 C 55 % 1017,8 hPa 0,0 l/m O-NO 0,83 h 738 W/m 14,4 km/h (3 Bft)
11.08.2012 14:00 21,6 C 53 % 1017,3 hPa 0,0 l/m NO 0,75 h 774 W/m 14,4 km/h (3 Bft)
11.08.2012 15:00 22,1 C 49 % 1017,0 hPa 0,0 l/m O-NO 0,75 h 646 W/m 15,7 km/h (3 Bft)
11.08.2012 16:00 22,5 C 46 % 1016,6 hPa 0,0 l/m O-NO 1,00 h 652 W/m 17,3 km/h (3 Bft)
11.08.2012 17:00 22,4 C 46 % 1016,2 hPa 0,0 l/m O-SO 1,00 h 501 W/m 18,0 km/h (3 Bft)
11.08.2012 18:00 21,7 C 47 % 1015,9 hPa 0,0 l/m O 1,00 h 337 W/m 17,6 km/h (3 Bft)
11.08.2012 19:00 20,4 C 52 % 1015,7 hPa 0,0 l/m O 0,58 h 122 W/m 15,7 km/h (3 Bft)
11.08.2012 20:00 18,4 C 59 % 1015,8 hPa 0,0 l/m O 0,08 h 14 W/m 14,9 km/h (3 Bft)
11.08.2012 21:00 16,9 C 63 % 1016,0 hPa 0,0 l/m O 0,00 h 0 W/m 8,5 km/h (2 Bft)
11.08.2012 22:00 15,7 C 67 % 1015,7 hPa 0,0 l/m O-NO 0,00 h 0 W/m 8,4 km/h (2 Bft)
11.08.2012 23:00 14,8 C 70 % 1015,5 hPa 0,0 l/m O-NO 0,00 h 0 W/m 8,0 km/h (2 Bft)
12.08.2012 00:00 13,7 C 74 % 1015,0 hPa 0,0 l/m O-NO 0,00 h 0 W/m 5,1 km/h (1 Bft)
12.08.2012 01:00 13,0 C 77 % 1014,5 hPa 0,0 l/m NO 0,00 h 0 W/m 7,9 km/h (2 Bft)
12.08.2012 02:00 12,4 C 80 % 1014,2 hPa 0,0 l/m NO 0,00 h 0 W/m 7,9 km/h (2 Bft)
12.08.2012 03:00 11,7 C 83 % 1014,0 hPa 0,0 l/m NO 0,00 h 0 W/m 5,3 km/h (1 Bft)
12.08.2012 04:00 11,1 C 85 % 1013,5 hPa 0,0 l/m NO 0,00 h 0 W/m 6,0 km/h (2 Bft)
12.08.2012 05:00 10,1 C 89 % 1013,4 hPa 0,0 l/m N 0,00 h 0 W/m 3,3 km/h (1 Bft)
12.08.2012 06:00 9,4 C 91 % 1013,2 hPa 0,0 l/m N 0,00 h 14 W/m 5,7 km/h (1 Bft)
12.08.2012 07:00 10,4 C 89 % 1013,2 hPa 0,0 l/m NO 0,33 h 105 W/m 6,4 km/h (2 Bft)
12.08.2012 08:00 12,3 C 84 % 1013,1 hPa 0,0 l/m NO 1,00 h 280 W/m 9,8 km/h (2 Bft)
12.08.2012 09:00 14,4 C 78 % 1013,1 hPa 0,0 l/m NO 1,00 h 448 W/m 10,1 km/h (2 Bft)
12.08.2012 10:00 16,5 C 73 % 1013,1 hPa 0,0 l/m NO 1,00 h 599 W/m 11,3 km/h (2 Bft)
12.08.2012 11:00 18,9 C 65 % 1012,8 hPa 0,0 l/m O-SO 1,00 h 711 W/m 12,5 km/h (3 Bft)
12.08.2012 12:00 20,5 C 61 % 1012,3 hPa 0,0 l/m O-SO 1,00 h 768 W/m 11,1 km/h (2 Bft)
12.08.2012 13:00 21,4 C 58 % 1012,0 hPa 0,0 l/m O-SO 0,92 h 639 W/m 11,0 km/h (2 Bft)
12.08.2012 14:00 22,4 C 55 % 1011,9 hPa 0,0 l/m O 1,00 h 788 W/m 11,2 km/h (2 Bft)
12.08.2012 15:00 23,4 C 52 % 1011,7 hPa 0,0 l/m N-NO 1,00 h 811 W/m 10,5 km/h (2 Bft)
12.08.2012 16:00 24,0 C 50 % 1011,5 hPa 0,0 l/m O-NO 1,00 h 591 W/m 10,6 km/h (2 Bft)
12.08.2012 17:00 23,7 C 47 % 1011,5 hPa 0,0 l/m O-NO 1,00 h 475 W/m 11,6 km/h (2 Bft)
12.08.2012 18:00 23,4 C 46 % 1011,3 hPa 0,0 l/m O-NO 1,00 h 338 W/m 9,3 km/h (2 Bft)
12.08.2012 19:00 22,4 C 49 % 1011,3 hPa 0,0 l/m NO 0,58 h 115 W/m 10,2 km/h (2 Bft)
12.08.2012 20:00 19,6 C 62 % 1011,5 hPa 0,0 l/m N 0,08 h 16 W/m 1,1 km/h (0 Bft)
12.08.2012 21:00 17,1 C 72 % 1011,8 hPa 0,0 l/m N 0,00 h 0 W/m 0,0 km/h (0 Bft)
12.08.2012 22:00 16,0 C 76 % 1012,2 hPa 0,0 l/m N 0,00 h 0 W/m 0,0 km/h (0 Bft)
12.08.2012 23:00 14,8 C 78 % 1012,5 hPa 0,0 l/m N 0,00 h 0 W/m 0,5 km/h (0 Bft)
Min-Datum _ 12.08.12 12.08.12 06.08.12 - - - - 07.08.12
_ Min-Zeit 06:40 18:20 00:00 - - - - 01:35
Minimum _ 9,3 C 44 % 1007,0 hPa - - - - 0,0 km/h (0 Bft)
Max-Datum _ 09.08.12 07.08.12 08.08.12 06.08.12 - 06.08.12 07.08.12 06.08.12
_ Max-Zeit 17:35 03:40 09:05 15:00 - 08:10 13:40 00:25
Maximum _ 24,7 C 99 % 1022,7 hPa 5,6 l/m - 0,08 h 1100 W/m 40,2 km/h
W-NW (6 Bft)
Durchschnitt _ 17,2 C 74 % 1018,1 hPa #14,4 l/m N-NO #57:20 h 364 W/m 8,3 km/h (2 Bft)